Time;durP1;ratioP1;P1;durP2;ratioP2;P2;SDS_P1;SDS_P2;PMS_P1;PMS_P2;Temp;Humidity;BMP_temperature;BMP_pressure;BME280_temperature;BME280_humidity;BME280_pressure;Samples;Min_cycle;Max_cycle;Signal;HPM_P1;HPM_P2
2022/12/26 00:00:11;;;;;;;19.67;13.55;;;9.80;99.90;;;;;;5025201;28;20128;-67
2022/12/26 00:02:37;;;;;;;20.52;13.55;;;9.80;99.90;;;;;;5020092;28;20163;-67
2022/12/26 00:05:02;;;;;;;22.23;15.55;;;9.80;99.90;;;;;;5020442;28;20465;-67
2022/12/26 00:07:28;;;;;;;20.27;14.05;;;9.80;99.90;;;;;;5043388;28;20032;-67
2022/12/26 00:09:53;;;;;;;21.25;14.73;;;9.80;99.90;;;;;;5017103;28;20465;-67
2022/12/26 00:12:19;;;;;;;21.88;14.18;;;9.90;99.90;;;;;;5015438;28;20036;-67
2022/12/26 00:14:45;;;;;;;27.15;16.88;;;9.90;99.90;;;;;;5006385;28;20026;-67
2022/12/26 00:17:10;;;;;;;24.15;16.08;;;9.90;99.90;;;;;;5022731;28;20034;-67
2022/12/26 00:19:36;;;;;;;27.65;17.15;;;9.90;99.90;;;;;;5028119;28;20034;-67
2022/12/26 00:22:01;;;;;;;29.67;18.48;;;9.90;99.90;;;;;;5028473;28;20025;-67
2022/12/26 00:24:27;;;;;;;31.20;19.27;;;9.90;99.90;;;;;;5006910;28;20448;-67
2022/12/26 00:26:52;;;;;;;26.38;18.05;;;9.90;99.90;;;;;;5016767;28;20568;-67
2022/12/26 00:29:18;;;;;;;31.55;19.38;;;9.90;99.90;;;;;;5040044;28;20041;-67
2022/12/26 00:31:43;;;;;;;34.33;21.80;;;9.90;99.90;;;;;;5017933;28;20513;-67
2022/12/26 00:34:09;;;;;;;30.30;19.45;;;9.90;99.90;;;;;;5021430;28;20417;-67
2022/12/26 00:36:34;;;;;;;33.33;21.27;;;10.00;99.90;;;;;;5024216;28;20450;-67
2022/12/26 00:39:01;;;;;;;35.22;21.50;;;10.00;99.90;;;;;;5024606;28;20401;-67
2022/12/26 00:41:28;;;;;;;32.95;21.45;;;10.00;99.90;;;;;;5021496;28;20648;-67
2022/12/26 00:43:54;;;;;;;33.78;21.75;;;10.00;99.90;;;;;;5017077;28;20108;-67
2022/12/26 00:46:20;;;;;;;33.22;20.63;;;10.00;99.90;;;;;;5022158;28;20025;-67
2022/12/26 00:48:46;;;;;;;32.85;21.13;;;10.00;99.90;;;;;;5024139;28;20044;-67
2022/12/26 00:51:12;;;;;;;30.52;21.15;;;10.00;99.90;;;;;;5022461;28;20505;-67
2022/12/26 00:53:38;;;;;;;30.40;19.50;;;10.00;99.90;;;;;;5014387;28;20535;-67
2022/12/26 00:56:03;;;;;;;28.88;19.73;;;10.00;99.90;;;;;;5027324;28;20053;-67
2022/12/26 00:58:29;;;;;;;31.13;20.75;;;10.00;99.90;;;;;;5015262;28;20026;-67
2022/12/26 01:00:55;;;;;;;31.25;20.92;;;10.10;99.90;;;;;;5045748;28;20041;-67
2022/12/26 01:03:20;;;;;;;29.30;21.25;;;10.00;99.90;;;;;;5062118;28;20078;-67
2022/12/26 01:05:49;;;;;;;28.13;20.25;;;10.00;99.90;;;;;;5047731;28;20037;-67
2022/12/26 01:08:15;;;;;;;32.60;21.88;;;10.00;99.90;;;;;;5041705;28;20096;-67
2022/12/26 01:10:42;;;;;;;31.33;22.15;;;10.00;99.90;;;;;;5046646;28;20483;-67
2022/12/26 01:13:08;;;;;;;29.33;21.17;;;10.00;99.90;;;;;;5041103;28;20042;-67
2022/12/26 01:15:34;;;;;;;27.95;20.13;;;10.00;99.90;;;;;;5033996;28;20021;-67
2022/12/26 01:18:00;;;;;;;26.85;19.45;;;10.00;99.90;;;;;;5044428;28;20031;-67
2022/12/26 01:20:26;;;;;;;26.38;19.67;;;10.00;99.90;;;;;;5042895;28;20096;-67
2022/12/26 01:22:52;;;;;;;27.80;19.40;;;10.10;99.90;;;;;;5057517;28;20074;-67
2022/12/26 01:25:18;;;;;;;27.75;18.80;;;10.10;99.90;;;;;;5047727;28;20036;-67
2022/12/26 01:27:43;;;;;;;26.35;20.55;;;10.10;99.90;;;;;;5049485;28;20029;-67
2022/12/26 01:30:10;;;;;;;29.13;20.88;;;10.10;99.90;;;;;;5066096;28;20392;-67
2022/12/26 01:32:35;;;;;;;28.90;20.33;;;10.10;99.90;;;;;;5049178;28;20392;-67
2022/12/26 01:35:01;;;;;;;26.70;19.55;;;10.10;99.90;;;;;;5049095;28;20034;-67
2022/12/26 01:37:26;;;;;;;29.45;21.33;;;10.10;99.90;;;;;;5048098;28;20499;-67
2022/12/26 01:39:52;;;;;;;29.77;19.92;;;10.10;99.90;;;;;;5047901;28;20033;-67
2022/12/26 01:42:20;;;;;;;27.70;20.08;;;10.10;99.90;;;;;;5037540;28;20063;-67
2022/12/26 01:45:05;;;;;;;28.55;20.52;;;10.10;99.90;;;;;;5046512;28;20074;-67
2022/12/26 01:47:48;;;;;;;27.98;19.63;;;10.10;99.90;;;;;;5066100;28;20037;-67
2022/12/26 01:50:41;;;;;;;28.40;20.05;;;10.00;99.90;;;;;;5046283;28;20029;-65
2022/12/26 01:53:15;;;;;;;27.40;19.25;;;10.00;99.90;;;;;;5049563;28;20025;-65
2022/12/26 01:55:44;;;;;;;26.05;19.17;;;10.00;99.90;;;;;;5027386;28;20485;-66
2022/12/26 01:58:14;;;;;;;;;;;10.00;99.90;;;;;;5050615;28;20017;-65
2022/12/26 02:00:40;;;;;;;28.50;20.33;;;9.90;99.90;;;;;;5047977;28;20338;-65
2022/12/26 02:05:55;;;;;;;26.20;18.83;;;9.90;99.90;;;;;;5058199;28;20042;-65
2022/12/26 02:08:24;;;;;;;27.27;20.60;;;9.90;99.90;;;;;;5054338;28;20029;-65
2022/12/26 02:11:20;;;;;;;29.42;20.92;;;9.90;99.90;;;;;;5030883;28;20500;-67
2022/12/26 02:13:45;;;;;;;28.95;21.02;;;9.90;99.90;;;;;;5045129;28;20104;-66
2022/12/26 02:16:14;;;;;;;29.98;19.98;;;9.80;99.90;;;;;;5047864;28;20144;-66
2022/12/26 02:18:40;;;;;;;25.05;19.20;;;9.80;99.90;;;;;;5045897;28;20037;-66
2022/12/26 02:21:24;;;;;;;26.30;19.45;;;9.80;99.90;;;;;;5044900;28;20469;-66
2022/12/26 02:24:14;;;;;;;27.02;18.85;;;9.80;99.90;;;;;;5035769;28;20030;-66
2022/12/26 02:27:03;;;;;;;27.60;20.15;;;9.80;99.90;;;;;;5047454;28;20021;-66
2022/12/26 02:29:40;;;;;;;25.70;19.30;;;9.80;99.90;;;;;;5048821;28;20021;-66
2022/12/26 02:32:14;;;;;;;25.50;20.02;;;9.80;99.90;;;;;;5043716;28;20033;-66
2022/12/26 02:35:06;;;;;;;28.30;22.67;;;9.80;99.90;;;;;;5038621;28;20072;-66
2022/12/26 02:38:06;;;;;;;28.65;21.38;;;9.80;99.90;;;;;;5043429;28;20021;-66
2022/12/26 02:41:03;;;;;;;30.27;23.17;;;9.80;99.90;;;;;;5036186;28;20028;-66
2022/12/26 02:43:59;;;;;;;32.75;24.02;;;9.80;99.90;;;;;;5048937;28;20021;-66
2022/12/26 02:47:03;;;;;;;29.33;23.25;;;9.80;99.90;;;;;;5010223;28;20112;-66
2022/12/26 03:13:09;;;;;;;31.58;23.73;;;9.80;99.90;;;;;;5040173;28;20112;-66
2022/12/26 03:18:33;;;;;;;40.28;29.35;;;9.80;99.90;;;;;;5029537;28;20071;-66
2022/12/26 03:21:00;;;;;;;44.20;30.90;;;9.70;99.90;;;;;;5025188;28;20434;-66
2022/12/26 03:23:27;;;;;;;43.58;31.58;;;9.70;99.90;;;;;;5029121;28;20029;-67
2022/12/26 03:28:41;;;;;;;40.22;29.90;;;9.80;99.90;;;;;;5020797;28;20032;-66
2022/12/26 03:31:09;;;;;;;41.92;31.60;;;9.80;99.90;;;;;;5028237;28;20943;-66
2022/12/26 03:37:06;;;;;;;38.80;29.38;;;9.80;99.90;;;;;;5029088;28;20037;-66
2022/12/26 04:44:11;;;;;;;21.73;19.25;;;9.80;99.90;;;;;;5026888;28;20056;-66
2022/12/26 04:46:43;;;;;;;21.92;19.20;;;9.80;99.90;;;;;;5027714;28;20028;-66
2022/12/26 04:51:56;;;;;;;19.30;17.20;;;9.80;99.90;;;;;;5027276;28;20446;-65
2022/12/26 04:54:22;;;;;;;18.58;15.15;;;9.80;99.90;;;;;;5027714;28;20032;-66
2022/12/26 04:56:48;;;;;;;17.15;15.38;;;9.80;99.90;;;;;;5009871;28;20017;-66
2022/12/26 04:59:15;;;;;;;16.05;14.40;;;9.80;99.90;;;;;;5032393;28;20804;-66
2022/12/26 05:10:05;;;;;;;11.68;10.48;;;9.80;99.90;;;;;;5044810;28;20044;-66
2022/12/26 05:12:31;;;;;;;11.50;10.30;;;9.80;99.90;;;;;;5044506;28;20021;-66
2022/12/26 05:14:56;;;;;;;12.93;9.00;;;9.80;99.90;;;;;;5043951;28;20033;-66
2022/12/26 05:28:43;;;;;;;9.40;8.02;;;9.80;99.90;;;;;;5045906;28;20071;-66
2022/12/26 05:31:14;;;;;;;10.13;7.68;;;9.70;99.90;;;;;;5038868;28;20052;-66
2022/12/26 05:36:30;;;;;;;7.18;6.43;;;9.70;99.90;;;;;;5045789;28;20083;-66
2022/12/26 05:38:56;;;;;;;7.15;6.30;;;9.70;99.90;;;;;;5043930;28;20782;-66
2022/12/26 05:41:22;;;;;;;6.72;6.00;;;9.70;99.90;;;;;;5047350;28;20051;-66
2022/12/26 05:43:48;;;;;;;6.57;5.85;;;9.70;99.90;;;;;;5044228;28;20036;-65
2022/12/26 05:46:13;;;;;;;7.43;6.65;;;9.60;99.90;;;;;;5029749;28;20033;-66
2022/12/26 05:48:39;;;;;;;7.68;6.05;;;9.60;99.90;;;;;;5037711;28;20021;-66
2022/12/26 05:51:05;;;;;;;7.72;6.32;;;9.60;99.90;;;;;;5043208;28;20477;-66
2022/12/26 05:53:31;;;;;;;8.02;6.03;;;9.50;99.90;;;;;;5038150;28;20030;-66
2022/12/26 05:56:11;;;;;;;7.88;6.20;;;9.50;99.90;;;;;;5044105;28;20013;-66
2022/12/26 05:58:37;;;;;;;8.57;6.63;;;9.60;99.90;;;;;;5043712;28;20075;-66
2022/12/26 06:01:05;;;;;;;7.43;5.97;;;9.60;99.90;;;;;;5036525;28;20040;-66
2022/12/26 06:03:30;;;;;;;13.80;8.23;;;9.50;99.90;;;;;;5039721;28;20038;-66
2022/12/26 06:05:56;;;;;;;8.63;6.22;;;9.50;99.90;;;;;;5026177;28;20033;-66
2022/12/26 06:08:22;;;;;;;9.13;6.97;;;9.50;99.90;;;;;;5046896;28;20485;-66
2022/12/26 06:10:47;;;;;;;8.15;6.05;;;9.50;99.90;;;;;;5059391;28;20432;-66
2022/12/26 06:13:13;;;;;;;7.93;6.53;;;9.50;99.90;;;;;;5039612;28;20040;-65
2022/12/26 06:15:38;;;;;;;7.85;6.55;;;9.50;99.90;;;;;;5045802;28;20108;-66
2022/12/26 06:18:04;;;;;;;6.43;5.60;;;9.50;99.90;;;;;;5036980;28;20022;-66
2022/12/26 06:20:29;;;;;;;8.90;6.88;;;9.50;99.90;;;;;;5042900;28;20465;-66
2022/12/26 06:22:55;;;;;;;9.70;7.35;;;9.50;99.90;;;;;;5026336;28;20504;-66
2022/12/26 06:25:20;;;;;;;9.77;7.30;;;9.50;99.90;;;;;;5046554;28;20532;-66
2022/12/26 06:27:46;;;;;;;9.15;6.53;;;9.50;99.90;;;;;;5047697;28;20047;-66
2022/12/26 06:30:12;;;;;;;10.65;7.13;;;9.50;99.90;;;;;;5047684;28;20036;-67
2022/12/26 06:32:37;;;;;;;8.50;6.53;;;9.50;99.90;;;;;;5049493;28;20560;-67
2022/12/26 06:35:03;;;;;;;10.38;7.32;;;9.40;99.90;;;;;;5048019;28;20078;-66
2022/12/26 06:37:29;;;;;;;9.60;7.47;;;9.40;99.90;;;;;;5034941;28;20017;-66
2022/12/26 06:39:55;;;;;;;9.18;7.40;;;9.40;99.90;;;;;;5053275;28;20020;-66
2022/12/26 06:42:21;;;;;;;10.50;7.93;;;9.40;99.90;;;;;;5052758;28;20385;-66
2022/12/26 06:44:47;;;;;;;10.23;7.72;;;9.40;99.90;;;;;;5068904;28;20048;-66
2022/12/26 06:47:12;;;;;;;9.10;7.53;;;9.40;99.90;;;;;;5039318;28;20033;-66
2022/12/26 06:49:37;;;;;;;9.38;7.43;;;9.40;99.90;;;;;;5051551;28;20477;-66
2022/12/26 06:52:03;;;;;;;10.57;7.97;;;9.40;99.90;;;;;;5051652;28;20025;-66
2022/12/26 06:54:29;;;;;;;12.18;7.72;;;9.30;99.90;;;;;;5050412;28;20120;-66
2022/12/26 06:56:54;;;;;;;10.73;8.18;;;9.30;99.90;;;;;;5049707;28;20029;-67
2022/12/26 06:59:20;;;;;;;9.90;7.88;;;9.40;99.90;;;;;;5046737;28;20107;-66
2022/12/26 07:01:45;;;;;;;9.95;7.80;;;9.30;99.90;;;;;;5049315;28;20021;-66
2022/12/26 07:04:12;;;;;;;9.77;7.40;;;9.30;99.90;;;;;;5032427;28;20098;-66
2022/12/26 07:06:38;;;;;;;7.70;6.90;;;9.30;99.90;;;;;;5051430;28;20028;-66
2022/12/26 07:09:11;;;;;;;10.80;7.30;;;9.30;99.90;;;;;;5033827;28;20495;-66
2022/12/26 07:11:38;;;;;;;8.75;7.75;;;9.30;99.90;;;;;;5051318;28;20473;-67
2022/12/26 07:14:05;;;;;;;10.93;8.00;;;9.30;99.90;;;;;;5051686;28;20029;-67
2022/12/26 07:16:39;;;;;;;8.00;7.10;;;9.30;99.90;;;;;;5048771;28;20017;-66
2022/12/26 07:23:19;;;;;;;8.10;7.10;;;9.30;99.90;;;;;;4950153;29;20114;-66
2022/12/26 07:25:47;;;;;;;11.82;6.47;;;9.30;99.90;;;;;;4919254;29;20439;-66
2022/12/26 07:28:13;;;;;;;7.65;6.10;;;9.20;99.90;;;;;;5044863;28;20037;-66
2022/12/26 07:30:39;;;;;;;11.35;6.50;;;9.20;99.90;;;;;;5051160;28;20025;-67
2022/12/26 07:33:04;;;;;;;8.20;6.50;;;9.30;99.90;;;;;;5051225;28;20033;-66
2022/12/26 07:35:30;;;;;;;6.80;5.70;;;9.30;99.90;;;;;;5050777;28;20051;-66
2022/12/26 07:37:55;;;;;;;7.32;6.13;;;9.30;99.90;;;;;;5051803;28;20426;-66
2022/12/26 07:40:21;;;;;;;7.15;5.80;;;9.30;99.90;;;;;;5050100;28;20025;-66
2022/12/26 07:42:46;;;;;;;7.68;5.70;;;9.30;99.90;;;;;;5067731;28;20044;-66
2022/12/26 07:45:12;;;;;;;7.45;5.78;;;9.30;99.90;;;;;;5051955;28;20112;-66
2022/12/26 07:47:37;;;;;;;6.55;5.38;;;9.40;99.90;;;;;;5031127;28;20084;-66
2022/12/26 07:50:03;;;;;;;6.22;5.40;;;9.30;99.90;;;;;;5049162;28;20062;-66
2022/12/26 07:52:29;;;;;;;6.25;5.50;;;9.30;99.90;;;;;;5062026;28;20494;-66
2022/12/26 07:54:54;;;;;;;5.80;4.82;;;9.30;99.90;;;;;;5070847;28;20476;-66
2022/12/26 07:57:20;;;;;;;6.88;4.82;;;9.30;99.90;;;;;;5041232;28;20044;-66
2022/12/26 07:59:45;;;;;;;6.20;4.78;;;9.30;99.90;;;;;;5050159;28;20049;-66
2022/12/26 08:02:12;;;;;;;6.03;4.55;;;9.30;99.90;;;;;;5050004;28;20560;-66
2022/12/26 08:04:49;;;;;;;6.95;5.03;;;9.30;99.90;;;;;;5051394;28;20029;-66
2022/12/26 08:08:03;;;;;;;6.50;4.13;;;9.30;99.90;;;;;;5051131;28;20029;-66
2022/12/26 08:10:29;;;;;;;4.75;3.60;;;9.30;99.90;;;;;;5038275;28;20160;-66
2022/12/26 08:12:54;;;;;;;4.82;3.40;;;9.30;99.90;;;;;;5052123;28;20104;-66
2022/12/26 08:15:20;;;;;;;9.80;3.90;;;9.40;99.90;;;;;;5050817;28;20025;-66
2022/12/26 08:17:45;;;;;;;6.13;3.60;;;9.40;99.90;;;;;;5051453;28;20040;-66
2022/12/26 08:20:11;;;;;;;6.63;3.50;;;9.40;99.90;;;;;;5048196;28;20072;-66
2022/12/26 08:22:36;;;;;;;5.13;3.20;;;9.40;99.90;;;;;;5051392;28;20021;-64
2022/12/26 08:25:02;;;;;;;5.65;2.60;;;9.40;99.90;;;;;;5050939;28;20029;-63
2022/12/26 08:27:28;;;;;;;7.90;3.35;;;9.50;99.90;;;;;;5050273;28;20385;-64
2022/12/26 08:29:53;;;;;;;4.43;2.50;;;9.50;99.90;;;;;;5050023;28;20048;-63
2022/12/26 08:32:18;;;;;;;4.95;2.58;;;9.60;99.90;;;;;;5051055;28;20497;-63
2022/12/26 08:34:44;;;;;;;5.00;2.72;;;9.60;99.90;;;;;;5031175;28;20033;-63
2022/12/26 08:37:10;;;;;;;4.07;2.25;;;9.60;99.90;;;;;;5047352;28;20025;-63
2022/12/26 08:39:35;;;;;;;4.55;2.10;;;9.60;99.90;;;;;;5051035;28;20025;-63
2022/12/26 08:42:01;;;;;;;4.75;2.20;;;9.70;99.90;;;;;;5051476;28;20032;-63
2022/12/26 08:44:26;;;;;;;9.15;3.38;;;9.70;99.90;;;;;;5050980;28;20032;-63
2022/12/26 08:46:52;;;;;;;4.15;2.10;;;9.80;99.90;;;;;;5051365;28;20025;-63
2022/12/26 08:49:17;;;;;;;4.72;1.75;;;9.80;99.90;;;;;;5049664;28;20025;-64
2022/12/26 08:51:43;;;;;;;4.60;2.10;;;9.90;99.90;;;;;;5049849;28;20461;-64
2022/12/26 08:54:09;;;;;;;4.85;2.00;;;9.90;99.90;;;;;;5034437;28;20043;-64
2022/12/26 08:56:35;;;;;;;3.13;1.92;;;10.00;99.90;;;;;;5050285;28;20024;-64
2022/12/26 08:59:00;;;;;;;3.97;2.17;;;10.10;99.90;;;;;;5049398;28;20067;-63
2022/12/26 09:01:29;;;;;;;4.28;1.95;;;10.20;99.90;;;;;;5048151;28;20032;-64
2022/12/26 09:03:56;;;;;;;3.05;1.90;;;10.20;99.90;;;;;;5050153;28;20060;-64
2022/12/26 09:06:22;;;;;;;3.60;1.85;;;10.30;99.90;;;;;;5050511;28;20139;-63
2022/12/26 09:08:48;;;;;;;3.60;1.60;;;10.30;99.90;;;;;;5049920;28;20927;-64
2022/12/26 09:11:17;;;;;;;5.25;2.05;;;10.30;99.90;;;;;;5033039;28;20059;-64
2022/12/26 09:13:44;;;;;;;5.20;2.15;;;10.30;99.90;;;;;;5049270;28;20029;-64
2022/12/26 09:16:15;;;;;;;3.85;1.73;;;10.30;99.90;;;;;;5049662;28;20554;-64
2022/12/26 09:18:42;;;;;;;4.13;1.80;;;10.30;99.90;;;;;;5048298;28;20393;-64
2022/12/26 09:21:09;;;;;;;5.65;2.00;;;10.30;99.90;;;;;;5049583;28;20025;-64
2022/12/26 09:23:35;;;;;;;3.30;1.38;;;10.30;99.90;;;;;;5047230;28;20064;-64
2022/12/26 09:26:07;;;;;;;3.08;1.58;;;10.30;99.90;;;;;;5049571;28;20021;-63
2022/12/26 09:28:33;;;;;;;3.20;1.65;;;10.30;99.90;;;;;;5050767;28;20425;-64
2022/12/26 09:31:04;;;;;;;5.35;1.60;;;10.30;99.90;;;;;;5050559;28;20112;-64
2022/12/26 09:33:36;;;;;;;7.18;2.33;;;10.30;99.90;;;;;;5051099;28;20017;-63
2022/12/26 09:36:07;;;;;;;6.68;1.80;;;10.40;99.90;;;;;;5048872;28;20481;-64
2022/12/26 09:38:35;;;;;;;5.22;2.10;;;10.40;99.90;;;;;;5049460;28;20412;-64
2022/12/26 09:41:36;;;;;;;3.13;1.50;;;10.40;99.90;;;;;;5048875;28;20066;-64
2022/12/26 09:44:22;;;;;;;4.95;1.63;;;10.40;99.90;;;;;;5046309;28;20500;-64
2022/12/26 09:46:53;;;;;;;5.25;1.60;;;10.50;99.90;;;;;;5048669;28;20045;-64
2022/12/26 09:49:22;;;;;;;3.45;1.55;;;10.50;99.90;;;;;;5051578;28;20027;-63
2022/12/26 09:51:55;;;;;;;3.97;1.40;;;10.50;99.90;;;;;;5053374;28;20022;-64
2022/12/26 09:54:38;;;;;;;5.85;1.35;;;10.60;99.90;;;;;;5054089;28;20117;-64
2022/12/26 09:57:13;;;;;;;4.55;1.90;;;10.60;99.90;;;;;;5053896;28;20024;-64
2022/12/26 09:59:53;;;;;;;6.70;1.92;;;10.60;99.90;;;;;;5051484;28;20106;-63
2022/12/26 10:02:22;;;;;;;3.67;1.42;;;10.50;99.90;;;;;;5042676;28;20025;-64
2022/12/26 10:04:47;;;;;;;3.25;1.70;;;10.40;99.90;;;;;;5047105;28;20082;-63
2022/12/26 10:07:25;;;;;;;4.93;1.73;;;10.40;99.90;;;;;;5054493;28;20021;-63
2022/12/26 10:10:13;;;;;;;4.68;1.65;;;10.40;99.90;;;;;;5053391;28;20451;-63
2022/12/26 10:13:10;;;;;;;5.60;1.98;;;10.40;99.90;;;;;;5051392;28;20032;-64
2022/12/26 10:15:55;;;;;;;4.55;1.75;;;10.40;99.90;;;;;;5047288;28;20408;-63
2022/12/26 10:18:51;;;;;;;4.72;1.20;;;10.40;99.90;;;;;;5052068;28;20033;-65
2022/12/26 10:21:41;;;;;;;7.70;1.50;;;10.30;99.90;;;;;;5050780;28;20028;-66
2022/12/26 10:24:20;;;;;;;2.40;0.88;;;10.30;99.90;;;;;;5052614;28;20485;-66
2022/12/26 10:27:03;;;;;;;3.88;0.90;;;10.30;99.90;;;;;;5051705;28;20454;-66
2022/12/26 10:29:38;;;;;;;5.90;2.33;;;10.30;99.90;;;;;;5033558;28;20441;-66
2022/12/26 10:32:30;;;;;;;5.63;1.75;;;10.30;99.90;;;;;;5034070;28;20350;-66
2022/12/26 10:34:58;;;;;;;2.72;0.60;;;10.30;99.90;;;;;;5046466;28;20540;-66
2022/12/26 10:37:33;;;;;;;3.33;0.90;;;10.30;99.90;;;;;;5034664;28;20025;-66
2022/12/26 10:40:11;;;;;;;5.25;0.80;;;10.40;99.90;;;;;;5044792;28;20023;-66
2022/12/26 10:42:40;;;;;;;8.77;1.58;;;10.50;99.90;;;;;;5036215;28;20030;-66
2022/12/26 10:45:16;;;;;;;4.25;1.00;;;10.80;99.90;;;;;;5043471;28;20040;-66
2022/12/26 10:47:47;;;;;;;3.63;0.68;;;11.10;99.90;;;;;;5017379;28;20503;-66
2022/12/26 10:50:22;;;;;;;7.07;1.23;;;11.00;99.90;;;;;;5048234;28;20087;-66
2022/12/26 10:52:49;;;;;;;5.43;1.10;;;10.90;99.90;;;;;;5051014;28;20107;-66
2022/12/26 10:55:17;;;;;;;10.15;1.35;;;10.70;99.90;;;;;;5051055;28;20033;-66
2022/12/26 10:57:46;;;;;;;11.95;2.80;;;10.60;99.90;;;;;;5050601;28;20045;-66
2022/12/26 11:00:23;;;;;;;11.30;1.57;;;10.40;99.90;;;;;;5050922;28;20045;-66
2022/12/26 11:03:07;;;;;;;8.77;1.50;;;10.20;99.90;;;;;;5049201;28;20021;-66
2022/12/26 11:05:37;;;;;;;10.07;1.25;;;10.10;99.90;;;;;;5052829;28;20048;-66
2022/12/26 11:08:25;;;;;;;8.30;1.70;;;10.10;99.90;;;;;;5052454;28;20025;-66
2022/12/26 11:11:05;;;;;;;6.47;1.10;;;10.30;99.90;;;;;;5046748;28;20167;-66
2022/12/26 11:13:33;;;;;;;;;;;10.40;99.90;;;;;;5050649;28;20033;-66
2022/12/26 11:15:58;;;;;;;5.18;0.98;;;10.40;99.90;;;;;;5052572;28;19909;-66
2022/12/26 11:18:30;;;;;;;8.35;1.45;;;10.30;99.90;;;;;;5034177;28;20021;-66
2022/12/26 11:21:20;;;;;;;8.13;1.20;;;10.20;99.90;;;;;;5051939;28;20024;-66
2022/12/26 11:23:51;;;;;;;9.15;1.33;;;10.20;99.90;;;;;;5041993;28;20021;-66
2022/12/26 11:26:28;;;;;;;8.32;1.27;;;10.30;99.90;;;;;;5051791;28;20036;-66
2022/12/26 11:29:06;;;;;;;5.75;1.40;;;10.30;99.90;;;;;;5051512;28;20040;-65
2022/12/26 11:31:32;;;;;;;6.28;1.10;;;10.40;99.90;;;;;;5045453;28;20037;-65
2022/12/26 11:34:00;;;;;;;8.27;0.80;;;10.60;99.90;;;;;;5044834;28;20047;-65
2022/12/26 11:36:27;;;;;;;10.77;1.33;;;10.60;99.90;;;;;;5045463;28;20024;-65
2022/12/26 11:39:00;;;;;;;6.53;0.98;;;10.70;99.90;;;;;;5050715;28;20100;-66
2022/12/26 11:41:32;;;;;;;11.63;1.20;;;10.70;99.90;;;;;;5052111;28;20112;-65
2022/12/26 11:44:13;;;;;;;6.78;1.25;;;10.60;99.90;;;;;;5052087;28;20029;-61
2022/12/26 11:46:59;;;;;;;6.65;1.00;;;10.50;99.90;;;;;;5039582;28;20029;-61
2022/12/26 11:49:32;;;;;;;7.82;1.00;;;10.60;99.90;;;;;;5037991;28;20029;-61
2022/12/26 11:52:00;;;;;;;6.35;1.30;;;10.50;99.90;;;;;;5050640;28;20029;-61
2022/12/26 11:54:35;;;;;;;5.93;0.80;;;10.30;99.90;;;;;;5052527;28;20071;-61
2022/12/26 11:57:09;;;;;;;6.28;1.10;;;10.20;99.90;;;;;;5051251;28;20084;-61
2022/12/26 11:59:35;;;;;;;8.07;0.95;;;10.00;99.90;;;;;;5051698;28;20044;-61
2022/12/26 12:02:24;;;;;;;5.95;1.08;;;9.90;99.90;;;;;;5051356;28;20412;-61
2022/12/26 12:04:52;;;;;;;4.30;0.80;;;9.90;99.90;;;;;;5051011;28;20075;-61
2022/12/26 12:07:42;;;;;;;9.70;1.20;;;9.90;99.90;;;;;;5051458;28;20037;-61
2022/12/26 12:10:32;;;;;;;10.07;1.15;;;10.00;99.90;;;;;;5050411;28;20023;-61
2022/12/26 12:13:26;;;;;;;8.73;1.85;;;10.00;99.90;;;;;;5051032;28;20024;-62
2022/12/26 12:16:07;;;;;;;5.55;1.00;;;10.20;99.90;;;;;;5037486;28;20071;-61
2022/12/26 12:19:03;;;;;;;4.15;1.10;;;10.50;99.90;;;;;;5033408;28;20027;-61
2022/12/26 12:21:44;;;;;;;4.35;0.93;;;10.90;99.90;;;;;;5044571;28;20018;-61
2022/12/26 12:24:22;;;;;;;8.25;1.00;;;11.00;99.90;;;;;;5043677;28;20056;-61
2022/12/26 12:26:59;;;;;;;6.95;0.70;;;11.10;99.90;;;;;;5048660;28;20021;-61
2022/12/26 12:29:50;;;;;;;9.27;1.30;;;11.10;99.90;;;;;;5050389;28;20061;-61
2022/12/26 12:32:33;;;;;;;7.85;1.40;;;11.30;99.90;;;;;;5050886;28;20660;-61
2022/12/26 12:35:23;;;;;;;3.60;1.05;;;11.20;99.90;;;;;;5050366;28;20029;-61
2022/12/26 12:38:03;;;;;;;4.70;0.73;;;11.30;99.90;;;;;;5050611;28;20027;-61
2022/12/26 12:40:42;;;;;;;9.23;1.08;;;11.30;99.90;;;;;;5050606;28;20017;-61
2022/12/26 12:43:15;;;;;;;3.72;0.80;;;11.50;99.90;;;;;;5040606;28;20029;-61
2022/12/26 12:45:47;;;;;;;5.15;0.85;;;11.80;99.90;;;;;;5050081;28;20384;-61
2022/12/26 12:48:33;;;;;;;5.32;0.57;;;12.40;99.90;;;;;;5050714;28;20021;-61
2022/12/26 12:51:02;;;;;;;3.72;0.70;;;12.80;99.90;;;;;;5049584;28;20092;-61
2022/12/26 12:53:52;;;;;;;7.88;0.90;;;13.10;98.70;;;;;;5049904;28;20021;-61
2022/12/26 12:56:50;;;;;;;4.30;0.80;;;13.90;97.80;;;;;;5050576;28;20049;-61
2022/12/26 12:59:40;;;;;;;4.28;0.52;;;15.10;94.90;;;;;;5040174;28;20052;-61
2022/12/26 13:02:19;;;;;;;1.63;0.40;;;15.60;92.30;;;;;;5050122;28;20206;-61
2022/12/26 13:04:49;;;;;;;4.30;0.80;;;15.90;90.20;;;;;;5049429;28;20044;-61
2022/12/26 13:07:22;;;;;;;4.18;0.60;;;16.50;86.60;;;;;;5046500;28;20066;-62
2022/12/26 13:10:00;;;;;;;3.40;0.70;;;17.00;83.60;;;;;;5049711;28;20025;-62
2022/12/26 13:12:33;;;;;;;4.13;0.60;;;17.20;80.60;;;;;;5043013;28;20056;-62
2022/12/26 13:15:27;;;;;;;4.43;0.77;;;17.30;78.80;;;;;;5048223;28;20116;-62
2022/12/26 13:18:12;;;;;;;3.88;0.90;;;17.60;77.60;;;;;;5049547;28;20023;-62
2022/12/26 13:20:46;;;;;;;5.90;0.85;;;17.70;76.50;;;;;;5029864;28;20143;-62
2022/12/26 13:26:18;;;;;;;3.38;0.85;;;17.20;74.80;;;;;;5052820;28;20092;-62
2022/12/26 13:29:04;;;;;;;3.63;0.65;;;16.70;75.00;;;;;;5038446;28;20036;-62
2022/12/26 13:31:35;;;;;;;5.07;0.90;;;16.40;74.80;;;;;;5053776;28;20511;-62
2022/12/26 13:34:03;;;;;;;3.45;0.60;;;16.00;75.30;;;;;;5051321;28;20463;-62
2022/12/26 13:36:45;;;;;;;3.33;0.45;;;15.50;76.50;;;;;;5050485;28;20816;-62
2022/12/26 13:39:11;;;;;;;5.00;0.60;;;15.00;77.00;;;;;;5051346;28;20039;-62
2022/12/26 13:44:30;;;;;;;2.72;1.40;;;14.00;78.20;;;;;;5054356;28;20115;-62
2022/12/26 13:46:57;;;;;;;2.72;0.50;;;13.50;80.00;;;;;;5052726;28;20052;-61
2022/12/26 13:49:35;;;;;;;3.53;0.75;;;13.10;79.70;;;;;;5051882;28;20515;-61
2022/12/26 13:52:10;;;;;;;3.22;0.60;;;12.80;80.70;;;;;;5049273;28;20033;-62
2022/12/26 13:54:57;;;;;;;3.15;0.60;;;12.50;81.60;;;;;;5052706;28;20044;-62
2022/12/26 13:57:34;;;;;;;3.58;0.63;;;12.20;82.60;;;;;;5050232;28;20477;-61
2022/12/26 14:00:14;;;;;;;3.42;0.70;;;12.00;83.60;;;;;;5049338;28;20480;-61
2022/12/26 14:03:08;;;;;;;6.57;0.70;;;11.80;84.80;;;;;;5052548;28;20159;-61
2022/12/26 14:05:53;;;;;;;4.93;0.82;;;11.60;85.70;;;;;;5051731;28;20061;-62
2022/12/26 14:08:47;;;;;;;1.77;0.65;;;11.40;86.30;;;;;;5051670;28;20017;-62
2022/12/26 14:11:37;;;;;;;3.28;0.55;;;12.00;87.50;;;;;;5052610;28;20132;-62
2022/12/26 14:14:16;;;;;;;3.70;0.80;;;12.90;84.70;;;;;;5051744;28;20029;-62
2022/12/26 14:17:03;;;;;;;5.15;0.60;;;13.20;83.20;;;;;;5051991;28;20028;-61
2022/12/26 14:19:54;;;;;;;2.13;0.50;;;13.40;81.40;;;;;;5051627;28;20032;-62
2022/12/26 14:22:30;;;;;;;2.90;1.10;;;13.60;79.90;;;;;;5052603;28;20024;-61
2022/12/26 14:25:06;;;;;;;2.33;0.50;;;14.10;78.50;;;;;;5048013;28;20477;-61
2022/12/26 14:28:00;;;;;;;4.82;0.77;;;14.30;76.80;;;;;;5053004;28;20029;-62
2022/12/26 14:30:54;;;;;;;2.83;0.57;;;14.60;76.10;;;;;;5018395;28;20064;-62
2022/12/26 14:33:31;;;;;;;2.53;0.30;;;14.80;75.50;;;;;;5039868;28;20029;-62
2022/12/26 14:36:20;;;;;;;2.15;0.40;;;15.00;75.00;;;;;;5052624;28;20396;-62
2022/12/26 14:38:59;;;;;;;1.60;0.45;;;15.00;73.80;;;;;;5053225;28;20390;-62
2022/12/26 14:44:32;;;;;;;1.83;0.40;;;14.60;73.90;;;;;;5055041;28;20147;-62
2022/12/26 14:47:01;;;;;;;2.38;0.40;;;14.40;74.00;;;;;;5044366;28;20044;-62
2022/12/26 14:49:36;;;;;;;3.00;0.55;;;14.20;74.10;;;;;;5050226;28;20036;-62
2022/12/26 14:52:23;;;;;;;2.42;0.55;;;14.10;74.30;;;;;;5031298;28;20025;-62
2022/12/26 14:54:50;;;;;;;4.07;0.52;;;13.90;74.70;;;;;;5050809;28;20017;-62
2022/12/26 14:57:38;;;;;;;2.13;0.50;;;13.50;74.70;;;;;;5048645;28;20396;-62
2022/12/26 15:00:14;;;;;;;3.90;0.50;;;13.10;75.80;;;;;;5050519;28;20045;-62
2022/12/26 15:02:43;;;;;;;3.30;0.40;;;12.60;77.10;;;;;;5050575;28;20511;-61
2022/12/26 15:05:35;;;;;;;2.85;0.88;;;12.20;78.10;;;;;;5050676;28;20032;-62
2022/12/26 15:08:21;;;;;;;3.70;0.40;;;11.70;79.10;;;;;;5044169;28;20110;-62
2022/12/26 15:11:18;;;;;;;1.95;0.50;;;11.40;80.00;;;;;;5051500;28;20076;-62
2022/12/26 15:14:03;;;;;;;3.40;0.50;;;11.00;80.90;;;;;;5049790;28;20031;-61
2022/12/26 15:16:31;;;;;;;2.67;0.40;;;10.70;81.70;;;;;;5050934;28;20021;-61
2022/12/26 15:19:35;;;;;;;3.92;0.63;;;10.40;82.50;;;;;;5051344;28;20440;-62
2022/12/26 15:22:13;;;;;;;1.73;0.47;;;10.20;82.70;;;;;;5050978;28;20036;-61
2022/12/26 15:25:21;;;;;;;3.00;0.50;;;9.90;83.70;;;;;;5051566;28;20083;-61
2022/12/26 15:28:11;;;;;;;6.15;1.92;;;9.80;84.20;;;;;;5050979;28;20025;-61
2022/12/26 15:31:10;;;;;;;4.45;0.60;;;9.60;84.70;;;;;;5030573;28;20029;-61
2022/12/26 15:33:45;;;;;;;1.23;0.30;;;9.40;85.30;;;;;;5042795;28;20095;-61